Latest Coastal Weather Observations for Moruya Airport

IDN60701

Issued at 4:41 am EST Sunday 31 July 2016 (issued every 10 minutes, with the page automatically refreshed every 10 minutes)

About coastal observations | Map of coastal stations | Coastal observations for NSW | Marine services | Other Formats
Station Details ID: 069148 Name: MORUYA AIRPORT AWS Lat: -35.90 Lon: 150.14 Height: 4.0 m
Data from the previous 72 hours. | See also: Recent months at Moruya Airport
Date/Time
EST
Temp
°C
Wind Pressure Rain since
9am
mm
Weather Cloud Vis
km
Sea
Height
m
Swell
Dir  Spd
kts
Gust
kts
hPa Trend Height
m
Period
s
Dir
31/04:30am 11.0 SSE 3 6 1013.5 - 0.0 - Partly cloudy 10 - - - -
31/04:00am 10.7 NW 7 8 1013.2 - 0.0 - Partly cloudy 10 - - - -
31/03:30am 10.4 NW 5 7 1013.5 - 0.0 - - 10 - - - -
31/03:00am 10.5 NNW 4 5 1014.1 - 0.0 - Mostly cloudy 10 - - - -
31/02:30am 10.6 NNW 4 6 1014.2 - 0.0 - - 10 - - - -
31/02:00am 11.6 NNW 5 7 1014.6 - 0.0 - - 10 - - - -
31/01:30am 12.3 NW 5 9 1015.1 - 0.0 - Partly cloudy 10 - - - -
31/01:00am 7.8 N 4 6 1015.5 - 0.0 - - 10 - - - -
31/12:30am 7.3 NNW 3 5 1015.4 - 0.0 - - 10 - - - -
31/12:00am 7.1 NNE 1 5 1015.7 - 0.0 - Mostly cloudy 10 - - - -
 
Date/Time
EST
Temp
°C
Wind Pressure Rain since
9am
mm
Weather Cloud Vis
km
Sea
Height
m
Swell
Dir  Spd
kts
Gust
kts
hPa Trend Height
m
Period
s
Dir
30/11:30pm 7.0 W 1 5 1016.2 - 0.0 - - 10 - - - -
30/11:00pm 6.8 CALM 0 0 1016.4 - 0.0 - - 10 - - - -
30/10:30pm 7.3 WNW 3 5 1016.9 - 0.0 - - 10 - - - -
30/10:00pm 6.8 SW 2 4 1017.3 - 0.0 - - 10 - - - -
30/09:30pm 6.5 WNW 4 5 1017.7 - 0.0 - - 10 - - - -
30/09:00pm 7.3 NW 3 5 1017.9 - 0.0 - - 10 - - - -
30/08:30pm 9.2 WNW 3 5 1018.1 - 0.0 - - 10 - - - -
30/08:00pm 11.0 N 7 9 1017.9 - 0.0 - - 10 - - - -
30/07:30pm 11.4 N 6 8 1018.1 - 0.0 - - 10 - - - -
30/07:00pm 11.8 N 6 9 1018.1 - 0.0 - - 10 - - - -
30/06:30pm 11.8 N 7 9 1018.0 - 0.0 - - 10 - - - -
30/06:00pm 11.9 N 6 9 1018.1 - 0.0 - Mostly clear 10 - - - -
30/05:30pm 11.6 N 6 8 1018.0 - 0.0 - - 10 - - - -
30/05:00pm 14.2 NNE 11 14 1017.9 - 0.0 - - 10 - - - -
30/04:30pm 14.6 NE 10 14 1018.2 - 0.0 - - 10 - - - -
30/04:00pm 15.1 NE 9 12 1018.7 - 0.0 - - 10 - - - -
30/03:30pm 15.4 NE 11 13 1018.9 - 0.0 - - 10 - - - -
30/03:00pm 16.0 ENE 11 13 1018.9 - 0.0 - - 10 - - - -
30/02:30pm 16.2 ENE 9 11 1019.3 - 0.0 - - 10 - - - -
30/02:00pm 16.0 ENE 9 10 1019.5 - 0.0 - - 10 - - - -
30/01:30pm 16.4 ENE 8 10 1019.9 - 0.0 - - 10 - - - -
30/01:00pm 16.1 ENE 8 9 1020.5 - 0.0 - - 10 - - - -
30/12:30pm 15.6 ENE 6 8 1021.0 - 0.0 - - 10 - - - -
30/12:00pm 15.6 ENE 6 7 1021.4 - 0.0 - - 10 - - - -
30/11:30am 15.5 E 7 8 1021.9 - 0.0 - - 10 - - - -
30/11:00am 16.3 WSW 5 9 1022.3 - 0.0 - - 10 - - - -
30/10:30am 15.3 W 5 7 1022.6 - 0.0 - - 10 - - - -
30/10:00am 14.5 WSW 5 7 1022.8 - 0.0 - - 10 - - - -
30/09:30am 13.0 W 5 7 1023.0 - 0.0 - - 10 - - - -
30/09:00am 11.8 W 6 8 1023.0 - 0.0 - - 10 - - - -
30/08:30am 10.0 W 5 8 1023.0 - 0.0 - - 10 - - - -
30/08:00am 8.0 WSW 5 7 1022.8 - 0.0 - Partly cloudy 10 - - - -
30/07:30am 7.6 WSW 5 7 1022.7 - 0.0 - Partly cloudy 10 - - - -
30/07:00am 6.6 WSW 4 6 1022.3 - 0.0 - Partly cloudy 10 - - - -
30/06:30am 7.5 WSW 5 7 1022.1 - 0.0 - Partly cloudy 10 - - - -
30/06:00am 6.8 WSW 6 8 1021.9 - 0.0 - - 10 - - - -
30/05:30am 7.6 W 6 9 1021.5 - 0.0 - - 10 - - - -
30/05:00am 7.9 WSW 6 8 1021.1 - 0.0 - - 10 - - - -
30/04:30am 7.5 WSW 6 8 1021.0 - 0.0 - Partly cloudy 10 - - - -
30/04:00am 7.1 WSW 6 8 1020.9 - 0.0 - - 10 - - - -
30/03:30am 6.6 W 5 7 1020.7 - 0.0 - - 10 - - - -
30/03:00am 5.7 W 5 8 1020.4 - 0.0 - - 10 - - - -
30/02:30am 5.0 WSW 1 4 1020.6 - 0.0 - - 10 - - - -
30/02:00am 4.9 WSW 2 3 1020.4 - 0.0 - - 10 - - - -
30/01:30am 5.4 WSW 2 4 1020.6 - 0.0 - - 10 - - - -
30/01:00am 6.0 WSW 4 6 1020.6 - 0.0 - - 10 - - - -
30/12:30am 5.4 W 2 4 1020.5 - 0.0 - - 10 - - - -
30/12:00am 5.6 WSW 3 5 1020.6 - 0.0 - - 10 - - - -
 
Date/Time
EST
Temp
°C
Wind Pressure Rain since
9am
mm
Weather Cloud Vis
km
Sea
Height
m
Swell
Dir  Spd
kts
Gust
kts
hPa Trend Height
m
Period
s
Dir
29/11:30pm 6.0 W 2 4 1020.6 - 0.0 - - 10 - - - -
29/11:00pm 7.1 CALM 0 0 1020.4 - 0.0 - - 10 - - - -
29/10:30pm 7.1 CALM 0 0 1020.1 - 0.0 - - 10 - - - -
29/10:00pm 8.0 N 2 3 1019.8 - 0.0 - - 10 - - - -
29/09:30pm 8.5 W 1 3 1019.9 - 0.0 - - 10 - - - -
29/09:00pm 9.1 ENE 2 4 1019.6 - 0.0 - Mostly cloudy 9 - - - -
29/08:30pm 9.3 CALM 0 0 1019.4 - 0.0 - - 10 - - - -
29/08:00pm 9.4 WSW 1 4 1019.1 - 0.0 - - 10 - - - -
29/07:30pm 9.3 WNW 1 4 1018.6 - 0.0 - - 10 - - - -
29/07:00pm 9.7 SW 5 6 1018.3 - 0.0 - - 10 - - - -
29/06:30pm 9.9 CALM 0 0 1017.8 - 0.0 - - 10 - - - -
29/06:00pm 10.6 NW 4 5 1017.5 - 0.0 - Cloudy 10 - - - -
29/05:30pm 11.4 NW 3 4 1017.5 - 0.0 - - 10 - - - -
29/05:00pm 12.5 SSE 3 5 1017.1 - 0.0 - - 10 - - - -
29/04:30pm 14.4 SE 4 5 1016.8 - 0.0 - - 10 - - - -
29/04:00pm 15.5 ESE 4 5 1016.8 - 0.0 - - 10 - - - -
29/03:30pm 15.8 E 4 5 1016.6 - 0.0 - - 10 - - - -
29/03:00pm 16.7 ENE 4 5 1016.5 - 0.0 - - 10 - - - -
29/02:30pm 16.4 ENE 6 7 1016.5 - 0.0 - - 10 - - - -
29/02:00pm 16.0 NE 7 8 1016.4 - 0.0 - - 10 - - - -
29/01:30pm 15.8 ENE 7 8 1016.9 - 0.0 - - 10 - - - -
29/01:00pm 16.4 E 6 9 1017.2 - 0.0 - - 10 - - - -
29/12:30pm 18.1 W 5 6 1017.7 - 0.0 - - 10 - - - -
29/12:00pm 17.1 WSW 6 10 1018.4 - 0.0 - - 10 - - - -
29/11:30am 16.4 W 6 8 1019.0 - 0.0 - - 10 - - - -
29/11:00am 15.2 NW 6 9 1019.4 - 0.0 - - 10 - - - -
29/10:30am 13.6 W 5 9 1019.8 - 0.0 - - 10 - - - -
29/10:00am 11.5 SE 2 5 1020.1 - 0.0 - - 10 - - - -
29/09:30am 10.4 E 1 3 1020.3 - 0.0 - - 10 - - - -
29/09:00am 8.7 N 4 5 1020.5 - 0.0 - - 10 - - - -
29/08:30am 6.6 N 2 3 1020.6 - 0.0 - - 10 - - - -
29/08:00am 3.2 NNE 3 5 1020.7 - 0.0 - - 10 - - - -
29/07:30am 1.2 CALM 0 2 1020.8 - 0.0 - - 10 - - - -
29/07:00am 0.2 SW 5 6 1020.8 - 0.0 - - 10 - - - -
29/06:30am 0.3 NNW 5 6 1020.5 - 0.0 - - 10 - - - -
29/06:28am -0.1 N 5 6 1020.5 - 0.0 - - 10 - - - -
29/06:10am 0.1 W 2 4 1020.7 - 0.0 - - 5 - - - -
29/06:00am -0.1 NW 3 4 1020.8 - 0.0 - - 10 - - - -
29/05:30am 0.1 N 1 3 1020.7 - 0.0 - - 10 - - - -
29/05:20am -1.0 N 5 7 1020.8 - 0.0 - - 10 - - - -
29/05:00am 0.3 CALM 0 0 1020.5 - 0.0 - - 2 - - - -
29/04:57am 0.3 CALM 0 0 1020.5 - 0.0 - - 4 - - - -
29/04:30am 0.6 WNW 1 5 1020.2 - 0.0 - - 10 - - - -
29/04:00am 1.5 WNW 4 6 1020.4 - 0.0 - - 10 - - - -
29/03:30am 0.3 W 4 5 1020.6 - 0.0 - - 10 - - - -
29/03:00am 1.2 WNW 2 4 1020.8 - 0.0 - - 10 - - - -
29/02:38am 2.2 NW 3 5 1021.0 - 0.0 - - 10 - - - -
29/02:30am 2.0 NW 1 5 1021.1 - 0.0 - - 10 - - - -
29/02:19am 1.7 NW 1 3 1021.2 - 0.0 - - 4 - - - -
29/02:00am 2.3 NW 3 4 1021.4 - 0.0 - - 10 - - - -
29/01:30am 2.8 NNW 1 3 1021.3 - 0.0 - - 10 - - - -
29/01:00am 2.4 W 3 4 1021.5 - 0.0 - - 10 - - - -
29/12:30am 2.9 WSW 3 4 1021.4 - 0.0 - - 10 - - - -
29/12:00am 2.9 CALM 0 0 1021.3 - 0.0 - - 10 - - - -
 
Date/Time
EST
Temp
°C
Wind Pressure Rain since
9am
mm
Weather Cloud Vis
km
Sea
Height
m
Swell
Dir  Spd
kts
Gust
kts
hPa Trend Height
m
Period
s
Dir
28/11:30pm 3.8 SW 4 5 1021.1 - 0.0 - - 10 - - - -
28/11:00pm 4.6 CALM 0 0 1021.0 - 0.0 - - 10 - - - -
28/10:30pm 4.5 NNW 3 4 1020.8 - 0.0 - - 10 - - - -
28/10:00pm 5.2 CALM 0 0 1020.9 - 0.0 - - 10 - - - -
28/09:30pm 6.2 CALM 0 0 1020.9 - 0.0 - - 10 - - - -
28/09:00pm 6.9 WSW 3 5 1021.0 - 0.0 - - 10 - - - -
28/08:30pm 9.6 WSW 6 9 1020.7 - 0.0 - - 10 - - - -
28/08:00pm 7.2 W 4 6 1020.6 - 0.0 - - 10 - - - -
28/07:30pm 7.8 W 4 5 1020.5 - 0.0 - - 10 - - - -
28/07:00pm 8.5 W 3 4 1020.4 - 0.0 - - 10 - - - -
28/06:30pm 9.6 WSW 4 5 1020.0 - 0.0 - - 10 - - - -
28/06:00pm 10.4 WSW 4 5 1019.4 - 0.0 - - 10 - - - -
28/05:30pm 11.2 S 1 3 1019.1 - 0.0 - - 10 - - - -
28/05:00pm 13.9 E 1 4 1019.0 - 0.0 - - 10 - - - -
28/04:30pm 15.4 NE 6 7 1018.8 - 0.0 - - 10 - - - -
28/04:00pm 15.8 NE 7 9 1018.7 - 0.0 - - 10 - - - -
28/03:30pm 16.1 NE 9 11 1018.6 - 0.0 - - 10 - - - -
28/03:00pm 16.3 ENE 8 9 1018.7 - 0.0 - - 10 - - - -
28/02:30pm 16.6 NE 8 10 1018.8 - 0.0 - - 10 - - - -
28/02:00pm 16.4 ENE 9 10 1019.0 - 0.0 - - 10 - - - -
28/01:30pm 16.6 ENE 7 9 1019.2 - 0.0 - - 10 - - - -
28/01:00pm 16.3 ENE 7 8 1019.6 - 0.0 - - 10 - - - -
28/12:30pm 16.9 ENE 6 8 1020.0 - 0.0 - - 10 - - - -
28/12:00pm 17.6 N 4 6 1020.6 - 0.0 - - 10 - - - -
28/11:30am 16.2 NNE 6 9 1021.2 - 0.0 - - 10 - - - -
28/11:00am 15.2 ESE 5 6 1021.8 - 0.0 - - 10 - - - -
28/10:30am 15.0 NNW 5 7 1021.9 - 0.0 - - 10 - - - -
28/10:00am 14.0 WNW 2 5 1022.0 - 0.0 - - 10 - - - -
28/09:30am 12.8 N 4 5 1021.7 - 0.0 - - 10 - - - -
28/09:00am 10.2 WNW 2 3 1021.9 - 0.0 - - 10 - - - -
28/08:30am 8.7 N 1 4 1022.1 - 0.0 - - 10 - - - -
28/08:00am 5.4 CALM 0 3 1022.1 - 0.0 - - 10 - - - -
28/07:30am 3.4 W 3 4 1021.8 - 0.0 - - 10 - - - -
28/07:00am 2.7 S 1 5 1021.6 - 0.0 - - 10 - - - -
28/06:30am 2.1 WNW 1 5 1021.4 - 0.0 - - 10 - - - -
28/06:00am 2.2 W 4 6 1021.2 - 0.0 - - 10 - - - -
28/05:30am 2.2 W 5 8 1021.0 - 0.0 - - 10 - - - -
28/05:00am 3.2 CALM 0 0 1020.5 - 0.0 - - 10 - - - -

Other Formats:

Comma delimited format used in spreadsheet applications
http://www.bom.gov.au/fwo/IDN60701/IDN60701.95937.axf

JavaScript Object Notation format (JSON) in row-major order
http://www.bom.gov.au/fwo/IDN60701/IDN60701.95937.json